アテネ の空港の天気 - METARとTAF

アテネ国際空港 ( LGAV / ATH ) - ギリシャ アテネ
飛行場実況気象(Metar)
観測時間02/21 16:50 EET (02/21 14:50 UTC)
風向・風速北 6m/s
視程10km以上
天気現象
全天の4割程度の雲 雲底高度 760m
気温10℃
湿度62%
気圧1020hPa
METARLGAV 211450Z 36011KT 9999 SCT025 10/03 Q1020 NOSIG
過去の天気等 Google飛行場航空写真 Wunderground天気予報

過去48時間のMETAR

飛行場予報(TAF)
発表時間: 2/21 13:00 EET (2/21 11:00 UTC)
予報対象時間: 21日14時 EET ~ 22日14時 EET
風向・風速北北西 8m/s
視程10km以上
全天の4割程度の雲 雲底高度 550m
21日14時 EET ~ 21日17時 EET に一時的に
風向・風速北 8m/s 瞬間風速 13m/s
22日8時 EET ~ 22日14時 EET に 確率 40% で一時的に
視程5000m
天気現象
少しの雲 雲底高度 300m
全天の8割程度の雲 雲底高度 760m
全天の8割程度の雲 雲底高度 2130m
22日6時 EET ~ 22日8時 EET に徐々に
風向・風速北北東 8m/s
TAF LGAV 211100Z 2112/2212 33016KT 9999 SCT018
TEMPO 2112/2115 36015G25KT
PROB40 TEMPO 2206/2212 5000 RA FEW010 BKN025 BKN070
BECMG 2204/2206 02015KT